Time;durP1;ratioP1;P1;durP2;ratioP2;P2;SDS_P1;SDS_P2;PMS_P1;PMS_P2;Temp;Humidity;BMP_temperature;BMP_pressure;BME280_temperature;BME280_humidity;BME280_pressure;Samples;Min_cycle;Max_cycle;Signal;HPM_P1;HPM_P2
2020/12/24 00:02:16;;;;;;;2.20;1.70;;;8.80;99.90;;;;;;5041540;28;20242;-58
2020/12/24 00:04:41;;;;;;;1.50;1.40;;;8.80;99.90;;;;;;5046725;28;20174;-56
2020/12/24 00:07:07;;;;;;;1.20;1.10;;;8.70;99.90;;;;;;5034772;28;20176;-58
2020/12/24 00:09:33;;;;;;;1.33;1.13;;;8.70;99.90;;;;;;5046124;28;20244;-57
2020/12/24 00:11:58;;;;;;;1.90;1.57;;;8.80;99.90;;;;;;5043147;28;20744;-58
2020/12/24 00:14:24;;;;;;;2.50;2.03;;;8.70;99.90;;;;;;5043684;28;20665;-58
2020/12/24 00:16:50;;;;;;;1.93;1.40;;;8.70;99.90;;;;;;5035966;28;20187;-58
2020/12/24 00:19:16;;;;;;;3.03;1.70;;;8.70;99.90;;;;;;5042402;28;20433;-58
2020/12/24 00:21:42;;;;;;;2.10;1.90;;;8.80;99.90;;;;;;5048260;28;20206;-57
2020/12/24 00:24:08;;;;;;;2.10;1.90;;;8.80;99.90;;;;;;5040686;28;20528;-59
2020/12/24 00:26:34;;;;;;;1.87;1.77;;;8.70;99.90;;;;;;5039332;28;20517;-58
2020/12/24 00:29:05;;;;;;;1.33;1.23;;;8.70;99.90;;;;;;5040791;28;20175;-57
2020/12/24 00:31:31;;;;;;;1.47;1.23;;;8.70;99.90;;;;;;5038890;28;20273;-57
2020/12/24 00:33:57;;;;;;;3.43;1.60;;;8.70;99.90;;;;;;5030281;28;20567;-58
2020/12/24 00:36:22;;;;;;;1.10;1.10;;;8.70;99.90;;;;;;5054462;28;20206;-57
2020/12/24 00:38:48;;;;;;;1.93;1.60;;;8.60;99.90;;;;;;5051125;28;20278;-57
2020/12/24 00:41:13;;;;;;;2.17;1.53;;;8.70;99.90;;;;;;5055936;28;20518;-58
2020/12/24 00:43:39;;;;;;;1.43;1.20;;;8.60;99.90;;;;;;5047842;28;20443;-57
2020/12/24 00:46:05;;;;;;;1.10;1.10;;;8.60;99.90;;;;;;5062408;28;20335;-57
2020/12/24 00:48:31;;;;;;;1.43;1.30;;;8.60;99.90;;;;;;5052660;28;20942;-57
2020/12/24 00:50:56;;;;;;;1.80;1.10;;;8.60;99.90;;;;;;5045573;28;20534;-56
2020/12/24 00:53:22;;;;;;;1.30;1.20;;;8.60;99.90;;;;;;5045770;28;20584;-58
2020/12/24 00:55:48;;;;;;;2.03;1.10;;;8.60;99.90;;;;;;5047120;28;20221;-57
2020/12/24 00:58:13;;;;;;;1.60;1.50;;;8.60;99.90;;;;;;5056146;28;20182;-57
2020/12/24 01:00:39;;;;;;;1.60;1.50;;;8.60;99.90;;;;;;5054948;28;20280;-57
2020/12/24 01:03:05;;;;;;;2.27;1.30;;;8.60;99.90;;;;;;5045511;28;20211;-57
2020/12/24 01:05:31;;;;;;;1.40;1.30;;;8.60;99.90;;;;;;5050472;28;20188;-56
2020/12/24 01:07:57;;;;;;;1.50;1.40;;;8.60;99.90;;;;;;5048694;28;20310;-57
2020/12/24 01:10:23;;;;;;;1.53;1.30;;;8.60;99.90;;;;;;5045167;28;20529;-57
2020/12/24 01:12:48;;;;;;;1.27;1.10;;;8.60;99.90;;;;;;5012914;28;20274;-56
2020/12/24 01:15:14;;;;;;;0.90;0.90;;;8.50;99.90;;;;;;5034121;28;20668;-58
2020/12/24 01:17:40;;;;;;;1.03;0.90;;;8.50;99.90;;;;;;5043091;28;20187;-57
2020/12/24 01:20:06;;;;;;;1.00;0.90;;;8.40;99.90;;;;;;5039253;28;20433;-57
2020/12/24 01:22:34;;;;;;;0.80;0.80;;;8.40;99.90;;;;;;5044138;28;20476;-57
2020/12/24 01:25:00;;;;;;;0.70;0.70;;;8.30;99.90;;;;;;5040487;28;20430;-57
2020/12/24 01:27:26;;;;;;;0.60;0.60;;;8.30;99.90;;;;;;5052456;28;20485;-58
2020/12/24 01:29:52;;;;;;;0.60;0.60;;;8.20;99.90;;;;;;5054917;28;20422;-57
2020/12/24 01:32:18;;;;;;;3.40;2.30;;;8.20;99.90;;;;;;5050551;28;20866;-54
2020/12/24 01:34:44;;;;;;;0.80;0.70;;;8.10;99.90;;;;;;5051205;28;20736;-55
2020/12/24 01:37:09;;;;;;;1.37;0.63;;;8.00;99.90;;;;;;5050888;28;20428;-55
2020/12/24 01:39:35;;;;;;;0.70;0.70;;;8.00;99.90;;;;;;5050582;28;20178;-57
2020/12/24 01:42:01;;;;;;;1.70;0.80;;;8.00;99.90;;;;;;5050523;28;20199;-55
2020/12/24 01:44:26;;;;;;;0.70;0.60;;;7.90;99.90;;;;;;5052726;28;20176;-57
2020/12/24 01:46:52;;;;;;;0.60;0.60;;;7.90;99.90;;;;;;5038210;28;20183;-56
2020/12/24 01:49:19;;;;;;;0.70;0.70;;;7.80;99.90;;;;;;5039371;28;20183;-55
2020/12/24 01:51:53;;;;;;;0.70;0.60;;;7.80;99.90;;;;;;5035503;28;20430;-58
2020/12/24 01:54:22;;;;;;;0.70;0.70;;;7.70;99.90;;;;;;5045122;28;20438;-57
2020/12/24 01:56:48;;;;;;;0.70;0.70;;;7.70;99.90;;;;;;5054059;28;20433;-55
2020/12/24 01:59:15;;;;;;;0.80;0.60;;;7.60;99.90;;;;;;5045759;28;20983;-55
2020/12/24 02:01:51;;;;;;;0.70;0.70;;;7.50;99.90;;;;;;5042367;28;20481;-56
2020/12/24 02:04:17;;;;;;;0.60;0.60;;;7.50;99.90;;;;;;5040350;28;20410;-56
2020/12/24 02:06:44;;;;;;;1.10;0.60;;;7.40;99.90;;;;;;5035510;28;20441;-56
2020/12/24 02:09:11;;;;;;;0.60;0.60;;;7.30;99.90;;;;;;5050896;28;20927;-55
2020/12/24 02:11:39;;;;;;;0.60;0.60;;;7.30;99.90;;;;;;5040271;28;20556;-56
2020/12/24 02:14:05;;;;;;;0.90;0.60;;;7.20;99.90;;;;;;5042540;28;20437;-57
2020/12/24 02:16:34;;;;;;;0.60;0.60;;;7.20;99.90;;;;;;5033965;28;20437;-57
2020/12/24 02:19:01;;;;;;;0.70;0.70;;;7.20;99.90;;;;;;5051108;28;20437;-55
2020/12/24 02:21:27;;;;;;;0.63;0.63;;;7.20;99.90;;;;;;5049582;28;20887;-56
2020/12/24 02:23:52;;;;;;;0.73;0.60;;;7.20;99.90;;;;;;5040604;28;20445;-55
2020/12/24 02:26:18;;;;;;;1.43;0.87;;;7.10;99.90;;;;;;5056837;28;20602;-56
2020/12/24 02:28:44;;;;;;;0.90;0.70;;;7.10;99.90;;;;;;5049724;28;20179;-56
2020/12/24 02:31:10;;;;;;;0.60;0.60;;;7.10;99.90;;;;;;5029607;28;20455;-56
2020/12/24 02:33:36;;;;;;;1.73;0.83;;;7.10;99.90;;;;;;5047506;28;20211;-55
2020/12/24 02:36:03;;;;;;;0.70;0.70;;;7.00;99.90;;;;;;5050856;28;20189;-57
2020/12/24 02:38:28;;;;;;;0.60;0.60;;;7.00;99.90;;;;;;5050697;28;20445;-56
2020/12/24 02:40:54;;;;;;;2.20;0.80;;;6.90;99.90;;;;;;5047148;28;20461;-56
2020/12/24 02:43:20;;;;;;;2.40;1.97;;;6.90;99.90;;;;;;5050555;28;20223;-56
2020/12/24 02:45:45;;;;;;;0.70;0.70;;;6.90;99.90;;;;;;5050586;28;20179;-56
2020/12/24 02:48:11;;;;;;;1.23;0.70;;;6.90;99.90;;;;;;5045311;28;20258;-56
2020/12/24 02:50:36;;;;;;;0.60;0.60;;;6.90;99.90;;;;;;5045615;28;20176;-57
2020/12/24 02:53:02;;;;;;;1.20;0.80;;;6.90;99.90;;;;;;5048023;28;20598;-58
2020/12/24 02:55:28;;;;;;;0.70;0.70;;;6.90;99.90;;;;;;5032751;28;20443;-57
2020/12/24 02:57:54;;;;;;;1.27;0.90;;;6.90;99.90;;;;;;5039037;28;20176;-57
2020/12/24 03:00:20;;;;;;;2.77;1.80;;;6.90;99.90;;;;;;5049777;28;20225;-55
2020/12/24 03:02:45;;;;;;;0.83;0.83;;;6.80;99.90;;;;;;5047849;28;20808;-56
2020/12/24 03:05:11;;;;;;;0.87;0.73;;;6.80;99.90;;;;;;5040379;28;20916;-58
2020/12/24 03:07:36;;;;;;;1.53;0.70;;;6.80;99.90;;;;;;5043306;28;20637;-55
2020/12/24 03:10:03;;;;;;;0.87;0.87;;;6.80;99.90;;;;;;5047149;28;20229;-56
2020/12/24 03:12:28;;;;;;;0.83;0.80;;;6.80;99.90;;;;;;5042586;28;20712;-57
2020/12/24 03:14:54;;;;;;;0.77;0.77;;;6.80;99.90;;;;;;5030490;28;20426;-58
2020/12/24 03:17:20;;;;;;;0.60;0.60;;;6.70;99.90;;;;;;5045833;28;20183;-55
2020/12/24 03:19:47;;;;;;;5.13;0.77;;;6.70;99.90;;;;;;5050628;28;20178;-58
2020/12/24 03:22:13;;;;;;;0.67;0.67;;;6.70;99.90;;;;;;5047775;28;20493;-57
2020/12/24 03:24:38;;;;;;;0.83;0.70;;;6.70;99.90;;;;;;5050605;28;20453;-58
2020/12/24 03:27:04;;;;;;;0.60;0.60;;;6.60;99.90;;;;;;5033196;28;20422;-56
2020/12/24 03:29:30;;;;;;;0.80;0.80;;;6.60;99.90;;;;;;5049291;28;20183;-56
2020/12/24 03:31:57;;;;;;;2.20;0.90;;;6.60;99.90;;;;;;5034386;28;20179;-55
2020/12/24 03:34:23;;;;;;;0.60;0.60;;;6.60;99.90;;;;;;5035931;28;20595;-56
2020/12/24 03:36:49;;;;;;;3.33;0.87;;;6.60;99.90;;;;;;5046840;28;20433;-58
2020/12/24 03:39:14;;;;;;;0.97;0.70;;;6.60;99.90;;;;;;5046919;28;20555;-57
2020/12/24 03:41:40;;;;;;;0.70;0.70;;;6.60;99.90;;;;;;5061318;28;20194;-58
2020/12/24 03:44:05;;;;;;;1.73;1.00;;;6.60;99.90;;;;;;5068778;28;20684;-57
2020/12/24 03:46:31;;;;;;;0.70;0.70;;;6.60;99.90;;;;;;5035865;28;20226;-58
2020/12/24 03:48:57;;;;;;;0.60;0.60;;;6.60;99.90;;;;;;5049486;28;20258;-58
2020/12/24 03:51:22;;;;;;;0.80;0.80;;;6.60;99.90;;;;;;5049926;28;20214;-56
2020/12/24 03:53:48;;;;;;;0.97;0.93;;;6.50;99.90;;;;;;5045992;28;20209;-56
2020/12/24 03:56:14;;;;;;;1.60;0.80;;;6.50;99.90;;;;;;5042713;28;20537;-56
2020/12/24 03:58:40;;;;;;;0.70;0.70;;;6.50;99.90;;;;;;5047933;28;20199;-56
2020/12/24 04:01:06;;;;;;;1.37;0.80;;;6.50;99.90;;;;;;5047245;28;20449;-57
2020/12/24 04:03:32;;;;;;;0.77;0.77;;;6.50;99.90;;;;;;5042254;28;20472;-57
2020/12/24 04:05:57;;;;;;;1.03;0.80;;;6.50;99.90;;;;;;5039012;28;20668;-56
2020/12/24 04:08:23;;;;;;;1.80;0.80;;;6.50;99.90;;;;;;5046518;28;20645;-57
2020/12/24 04:10:49;;;;;;;5.90;1.00;;;6.50;99.90;;;;;;5057386;28;20232;-56
2020/12/24 04:13:15;;;;;;;1.73;1.00;;;6.50;99.90;;;;;;5055011;28;20453;-57
2020/12/24 04:15:41;;;;;;;1.67;0.77;;;6.50;99.90;;;;;;5048374;28;20529;-57
2020/12/24 04:18:06;;;;;;;3.33;0.80;;;6.40;99.90;;;;;;5050496;28;20175;-56
2020/12/24 04:20:32;;;;;;;3.13;0.90;;;6.40;99.90;;;;;;5048662;28;20203;-57
2020/12/24 04:22:58;;;;;;;0.90;0.80;;;6.30;99.90;;;;;;5042006;28;20202;-57
2020/12/24 04:25:23;;;;;;;1.03;0.80;;;6.30;99.90;;;;;;5049458;28;20458;-57
2020/12/24 04:27:49;;;;;;;0.90;0.90;;;6.20;99.90;;;;;;5051083;28;20182;-55
2020/12/24 04:30:15;;;;;;;1.53;0.70;;;6.20;99.90;;;;;;5044355;28;20642;-56
2020/12/24 04:32:40;;;;;;;1.07;0.90;;;6.10;99.90;;;;;;5059212;22;20222;-68
2020/12/24 04:35:06;;;;;;;1.43;0.80;;;6.10;99.90;;;;;;5052635;28;20214;-66
2020/12/24 04:37:32;;;;;;;2.40;1.10;;;6.10;99.90;;;;;;5078553;28;20185;-64
2020/12/24 04:39:57;;;;;;;1.40;1.10;;;6.10;99.90;;;;;;5072241;28;20177;-63
2020/12/24 04:42:23;;;;;;;1.00;0.90;;;6.00;99.90;;;;;;5071198;28;20468;-62
2020/12/24 04:44:50;;;;;;;1.33;0.90;;;6.00;99.90;;;;;;5057324;28;20178;-63
2020/12/24 04:47:17;;;;;;;2.20;1.17;;;6.00;99.90;;;;;;5072712;28;20184;-62
2020/12/24 04:49:43;;;;;;;7.37;1.10;;;6.00;99.90;;;;;;5074731;28;20424;-62
2020/12/24 04:52:09;;;;;;;3.67;1.07;;;5.90;99.90;;;;;;5074586;28;20404;-62
2020/12/24 04:54:36;;;;;;;3.20;1.30;;;5.90;99.90;;;;;;5073730;28;21073;-63
2020/12/24 04:57:07;;;;;;;1.63;1.00;;;5.90;99.90;;;;;;5073480;28;20283;-62
2020/12/24 04:59:33;;;;;;;2.63;1.03;;;5.90;99.90;;;;;;5073084;28;20934;-63
2020/12/24 05:02:01;;;;;;;2.33;1.00;;;5.90;99.90;;;;;;5068332;28;20467;-64
2020/12/24 05:04:28;;;;;;;1.27;0.90;;;5.90;99.90;;;;;;5072274;28;20941;-62
2020/12/24 05:07:06;;;;;;;2.93;1.20;;;5.90;99.90;;;;;;5072469;28;20789;-66
2020/12/24 05:09:33;;;;;;;3.13;1.20;;;5.80;99.90;;;;;;5062452;28;20430;-64
2020/12/24 05:11:59;;;;;;;1.33;1.10;;;5.90;99.90;;;;;;5053419;28;20405;-66
2020/12/24 05:14:26;;;;;;;1.30;1.20;;;5.90;99.90;;;;;;5073384;28;20980;-63
2020/12/24 05:16:58;;;;;;;1.53;1.00;;;5.90;99.90;;;;;;5068770;28;20425;-62
2020/12/24 05:19:25;;;;;;;2.20;1.20;;;5.80;99.90;;;;;;5089970;28;20439;-60
2020/12/24 05:21:52;;;;;;;4.77;1.03;;;5.80;99.90;;;;;;5075318;28;20452;-64
2020/12/24 05:24:31;;;;;;;6.70;1.13;;;5.90;99.90;;;;;;5068950;28;20877;-65
2020/12/24 05:27:08;;;;;;;0.80;0.80;;;5.90;99.90;;;;;;5066606;28;20423;-64
2020/12/24 05:29:39;;;;;;;2.43;0.93;;;5.80;99.90;;;;;;5090694;28;20423;-62
2020/12/24 05:32:06;;;;;;;1.97;0.97;;;5.80;99.90;;;;;;5071036;28;20424;-64
2020/12/24 05:34:32;;;;;;;3.47;1.00;;;5.80;99.90;;;;;;5058680;28;20870;-61
2020/12/24 05:37:15;;;;;;;4.90;1.30;;;5.80;99.90;;;;;;5057119;28;20437;-61
2020/12/24 05:39:41;;;;;;;3.53;1.07;;;5.80;99.90;;;;;;5052593;28;20428;-62
2020/12/24 05:42:07;;;;;;;1.40;1.10;;;5.90;99.90;;;;;;5071941;28;20449;-64
2020/12/24 05:44:34;;;;;;;3.70;1.20;;;5.80;99.90;;;;;;5056037;28;20457;-64
2020/12/24 05:47:00;;;;;;;7.00;1.17;;;5.90;99.90;;;;;;5072418;28;20436;-61
2020/12/24 05:49:27;;;;;;;1.43;1.20;;;5.90;99.90;;;;;;5072759;28;20425;-61
2020/12/24 05:52:05;;;;;;;2.77;1.07;;;5.90;99.90;;;;;;5050972;28;20513;-63
2020/12/24 05:54:33;;;;;;;4.83;1.30;;;5.80;99.90;;;;;;5060101;28;20506;-61
2020/12/24 05:57:00;;;;;;;2.27;1.00;;;5.80;99.90;;;;;;5072573;28;20413;-61
2020/12/24 05:59:27;;;;;;;9.80;1.10;;;5.80;99.90;;;;;;5065235;28;20445;-64
2020/12/24 06:01:59;;;;;;;4.60;1.10;;;5.80;99.90;;;;;;5064836;28;20867;-61
2020/12/24 06:04:42;;;;;;;3.07;1.10;;;5.80;99.90;;;;;;5074185;28;21252;-61
2020/12/24 06:07:10;;;;;;;4.30;1.10;;;5.80;99.90;;;;;;5082234;28;20434;-62
2020/12/24 06:09:38;;;;;;;1.80;0.90;;;5.80;99.90;;;;;;5078833;28;20429;-64
2020/12/24 06:12:22;;;;;;;3.13;1.10;;;5.80;99.90;;;;;;5053059;28;20845;-62
2020/12/24 06:14:56;;;;;;;2.80;1.30;;;5.80;99.90;;;;;;5072356;28;20428;-62
2020/12/24 06:17:23;;;;;;;0.97;0.97;;;5.80;99.90;;;;;;5071972;28;20796;-64
2020/12/24 06:19:49;;;;;;;1.60;1.00;;;5.80;99.90;;;;;;5056466;28;20449;-64
2020/12/24 06:22:20;;;;;;;0.90;0.90;;;5.80;99.90;;;;;;5068331;28;20513;-61
2020/12/24 06:24:54;;;;;;;1.60;1.23;;;5.70;99.90;;;;;;5064001;28;20445;-61
2020/12/24 06:27:30;;;;;;;3.33;1.33;;;5.70;99.90;;;;;;5064222;28;20887;-61
2020/12/24 06:30:13;;;;;;;1.87;1.10;;;5.80;99.90;;;;;;5053711;28;20427;-62
2020/12/24 06:32:45;;;;;;;1.63;1.33;;;5.70;99.90;;;;;;5060215;28;20432;-62
2020/12/24 06:35:11;;;;;;;1.33;1.13;;;5.70;99.90;;;;;;5064630;28;20848;-62
2020/12/24 06:37:41;;;;;;;2.30;1.30;;;5.70;99.90;;;;;;5072168;28;20551;-61
2020/12/24 06:40:27;;;;;;;3.57;1.17;;;5.70;99.90;;;;;;5073735;28;20178;-62
2020/12/24 06:42:53;;;;;;;5.40;1.10;;;5.70;99.90;;;;;;5070700;28;20444;-61
2020/12/24 06:45:24;;;;;;;4.23;1.00;;;5.70;99.90;;;;;;5056941;28;20422;-62
2020/12/24 06:48:19;;;;;;;3.03;1.33;;;5.70;99.90;;;;;;5066581;28;20212;-61
2020/12/24 06:50:45;;;;;;;3.60;1.30;;;5.70;99.90;;;;;;5069874;28;20448;-62
2020/12/24 06:53:33;;;;;;;1.93;1.03;;;5.70;99.90;;;;;;5042608;28;20444;-62
2020/12/24 06:56:14;;;;;;;3.80;1.50;;;5.70;99.90;;;;;;5045794;28;20441;-62
2020/12/24 06:58:44;;;;;;;2.90;1.27;;;5.70;99.90;;;;;;5051463;28;20429;-61
2020/12/24 07:01:13;;;;;;;1.07;0.97;;;5.70;99.90;;;;;;5062625;28;21102;-62
2020/12/24 07:03:39;;;;;;;1.40;1.00;;;5.70;99.90;;;;;;5069279;28;20961;-63
2020/12/24 07:06:05;;;;;;;1.70;1.40;;;5.70;99.90;;;;;;5067607;28;20429;-62
2020/12/24 07:08:34;;;;;;;11.57;1.30;;;5.70;99.90;;;;;;5070441;28;20420;-64
2020/12/24 07:11:03;;;;;;;1.93;1.20;;;5.70;99.90;;;;;;5069003;28;20196;-61
2020/12/24 07:13:31;;;;;;;1.30;1.00;;;5.60;99.90;;;;;;5069664;28;20527;-61
2020/12/24 07:15:57;;;;;;;1.70;0.93;;;5.60;99.90;;;;;;5066749;28;20846;-62
2020/12/24 07:18:24;;;;;;;8.33;1.60;;;5.60;99.90;;;;;;5068345;28;20424;-63
2020/12/24 07:20:51;;;;;;;1.53;1.30;;;5.70;99.90;;;;;;5049757;28;20501;-61
2020/12/24 07:23:28;;;;;;;5.10;1.83;;;5.60;99.90;;;;;;5066678;28;20469;-65
2020/12/24 07:25:54;;;;;;;5.97;1.80;;;5.70;99.90;;;;;;5066672;28;20643;-62
2020/12/24 07:28:20;;;;;;;1.23;1.07;;;5.60;99.90;;;;;;5069165;28;20549;-62
2020/12/24 07:31:03;;;;;;;4.90;1.10;;;5.60;99.90;;;;;;5069292;28;20431;-59
2020/12/24 07:33:29;;;;;;;4.40;1.33;;;5.60;99.90;;;;;;5057367;28;20213;-59
2020/12/24 07:35:56;;;;;;;1.30;1.20;;;5.60;99.90;;;;;;5058670;28;20426;-58
2020/12/24 07:38:23;;;;;;;8.63;2.10;;;5.60;99.90;;;;;;5073310;28;20530;-61
2020/12/24 07:40:49;;;;;;;3.20;1.30;;;5.60;99.90;;;;;;5060637;28;20524;-62
2020/12/24 07:43:14;;;;;;;3.93;1.40;;;5.60;99.90;;;;;;5043890;28;20450;-62
2020/12/24 07:45:42;;;;;;;5.30;1.30;;;5.60;99.50;;;;;;5042316;28;20243;-59
2020/12/24 07:48:16;;;;;;;3.43;1.53;;;5.60;99.90;;;;;;5071459;28;20257;-62
2020/12/24 07:50:43;;;;;;;4.40;1.70;;;5.70;99.90;;;;;;5061108;28;20424;-63
2020/12/24 07:53:09;;;;;;;4.00;1.57;;;5.70;99.90;;;;;;5063722;28;20984;-60
2020/12/24 07:55:36;;;;;;;3.87;1.17;;;5.70;99.90;;;;;;5067411;28;20435;-63
2020/12/24 07:58:06;;;;;;;3.00;1.47;;;5.70;99.90;;;;;;5048067;28;20494;-61
2020/12/24 08:00:45;;;;;;;1.43;1.33;;;5.80;99.80;;;;;;5068326;28;20519;-62
2020/12/24 08:03:13;;;;;;;2.20;1.00;;;5.80;99.90;;;;;;5049001;28;20517;-63
2020/12/24 08:05:39;;;;;;;2.83;1.13;;;5.80;99.20;;;;;;5062660;28;20502;-66
2020/12/24 08:08:05;;;;;;;2.27;1.27;;;5.90;99.50;;;;;;5047459;28;20437;-63
2020/12/24 08:10:37;;;;;;;11.60;1.47;;;5.90;99.80;;;;;;5066951;28;20178;-59
2020/12/24 08:13:04;;;;;;;2.53;1.53;;;5.90;99.60;;;;;;5057520;28;20263;-61
2020/12/24 08:15:32;;;;;;;4.83;1.00;;;5.90;99.40;;;;;;5068081;28;20425;-63
2020/12/24 08:18:01;;;;;;;2.77;1.37;;;6.00;99.50;;;;;;5046438;28;20520;-64
2020/12/24 08:20:51;;;;;;;3.13;1.10;;;6.00;98.80;;;;;;5059266;28;20443;-65
2020/12/24 08:23:44;;;;;;;1.83;1.60;;;6.10;98.90;;;;;;5056790;28;20464;-61
2020/12/24 08:26:12;;;;;;;2.43;1.50;;;6.20;99.60;;;;;;5047555;28;20941;-62
2020/12/24 08:28:41;;;;;;;4.93;1.40;;;6.30;99.40;;;;;;5057921;28;20432;-63
2020/12/24 08:31:09;;;;;;;1.40;1.10;;;6.40;97.50;;;;;;5062445;28;20436;-63
2020/12/24 08:33:35;;;;;;;6.07;1.40;;;6.40;97.60;;;;;;5055439;28;20473;-63
2020/12/24 08:36:14;;;;;;;4.60;1.43;;;6.50;96.80;;;;;;5059319;28;22045;-64
2020/12/24 08:38:40;;;;;;;4.23;1.13;;;6.60;96.30;;;;;;5060637;28;20435;-62
2020/12/24 08:41:07;;;;;;;1.43;1.10;;;6.60;96.40;;;;;;5049952;28;20449;-61
2020/12/24 08:43:33;;;;;;;2.50;1.13;;;6.70;95.20;;;;;;5039533;28;20226;-63
2020/12/24 08:45:59;;;;;;;2.93;1.23;;;6.70;95.10;;;;;;5055921;28;20456;-61
2020/12/24 08:48:34;;;;;;;4.53;1.73;;;6.70;95.30;;;;;;5059235;28;20457;-66
2020/12/24 08:51:12;;;;;;;4.17;1.37;;;6.80;95.00;;;;;;5062209;28;20431;-62
2020/12/24 08:53:38;;;;;;;6.00;1.57;;;6.80;94.60;;;;;;5069198;28;20519;-62
2020/12/24 08:56:14;;;;;;;6.93;1.57;;;6.90;92.60;;;;;;5067086;28;20977;-62
2020/12/24 08:58:50;;;;;;;2.03;0.90;;;6.90;92.70;;;;;;5069261;28;20807;-61
2020/12/24 09:01:17;;;;;;;4.37;1.37;;;6.90;92.70;;;;;;5044252;28;20460;-67
2020/12/24 09:03:43;;;;;;;3.20;1.00;;;7.00;91.80;;;;;;5064496;28;21013;-66
2020/12/24 09:06:14;;;;;;;3.73;1.30;;;7.10;92.10;;;;;;5064879;28;20829;-62
2020/12/24 09:08:40;;;;;;;2.97;1.40;;;7.10;91.70;;;;;;5062457;28;20436;-59
2020/12/24 09:11:26;;;;;;;2.80;1.10;;;7.10;91.40;;;;;;5064745;28;20434;-59
2020/12/24 09:14:00;;;;;;;2.23;1.03;;;7.20;91.40;;;;;;5062960;28;20449;-59
2020/12/24 09:16:26;;;;;;;1.23;1.00;;;7.30;91.10;;;;;;5060858;28;20473;-63
2020/12/24 09:19:04;;;;;;;4.17;1.13;;;7.20;91.60;;;;;;5061000;28;22259;-62
2020/12/24 09:21:31;;;;;;;2.93;1.00;;;7.30;91.60;;;;;;5064717;28;20873;-62
2020/12/24 09:24:07;;;;;;;4.43;1.40;;;7.20;92.40;;;;;;5059360;28;20456;-65
2020/12/24 09:26:46;;;;;;;3.90;1.20;;;7.20;93.10;;;;;;5058947;28;20435;-65
2020/12/24 09:29:12;;;;;;;3.47;1.03;;;7.20;93.80;;;;;;5058702;28;20524;-62
2020/12/24 09:31:38;;;;;;;4.20;1.00;;;7.10;94.00;;;;;;5061979;28;20429;-61
2020/12/24 09:34:04;;;;;;;1.60;1.10;;;7.10;93.90;;;;;;5060945;28;20514;-63
2020/12/24 09:36:30;;;;;;;3.53;1.00;;;7.00;94.70;;;;;;5063795;28;20428;-62
2020/12/24 09:38:55;;;;;;;1.43;1.00;;;6.90;95.10;;;;;;5045162;28;22282;-62
2020/12/24 09:41:21;;;;;;;1.77;1.03;;;6.90;95.70;;;;;;5060210;28;20234;-62
2020/12/24 09:43:47;;;;;;;1.17;1.00;;;6.80;96.70;;;;;;5061596;28;20675;-63
2020/12/24 09:46:14;;;;;;;3.10;2.30;;;6.70;97.00;;;;;;5063682;28;20182;-62
2020/12/24 09:48:40;;;;;;;1.70;1.43;;;6.70;97.80;;;;;;5060638;28;20433;-63
2020/12/24 09:51:06;;;;;;;4.47;1.70;;;6.60;98.30;;;;;;5055741;28;20444;-62
2020/12/24 09:53:32;;;;;;;7.43;1.63;;;6.60;98.60;;;;;;5058157;28;20457;-61
2020/12/24 09:55:57;;;;;;;2.07;1.00;;;6.60;99.00;;;;;;5062073;28;20553;-63
2020/12/24 09:58:23;;;;;;;1.60;1.10;;;6.60;98.90;;;;;;5070511;28;20178;-62
2020/12/24 10:00:48;;;;;;;2.00;1.40;;;6.60;99.40;;;;;;5066423;28;20189;-63
2020/12/24 10:03:14;;;;;;;1.20;0.90;;;6.50;99.70;;;;;;5057829;28;20261;-62
2020/12/24 10:05:40;;;;;;;0.80;0.80;;;6.50;99.40;;;;;;5049641;28;20197;-62
2020/12/24 10:08:06;;;;;;;1.80;0.80;;;6.50;99.50;;;;;;5069491;28;20210;-62
2020/12/24 10:10:32;;;;;;;1.40;0.90;;;6.40;99.60;;;;;;5070367;28;20171;-63
2020/12/24 10:12:58;;;;;;;1.80;1.03;;;6.40;99.90;;;;;;5045500;28;20444;-62
2020/12/24 10:15:23;;;;;;;0.93;0.80;;;6.30;99.90;;;;;;5043969;28;20453;-62
2020/12/24 10:17:49;;;;;;;1.87;1.00;;;6.30;99.90;;;;;;5045088;28;20237;-62
2020/12/24 10:20:14;;;;;;;2.60;1.10;;;6.30;99.90;;;;;;5042303;28;20256;-62
2020/12/24 10:22:40;;;;;;;1.20;1.10;;;6.20;99.50;;;;;;5037470;28;20288;-62
2020/12/24 10:25:06;;;;;;;1.93;0.80;;;6.20;99.60;;;;;;5047000;28;20190;-61
2020/12/24 10:27:32;;;;;;;1.57;1.00;;;6.20;99.30;;;;;;5046358;28;20735;-60
2020/12/24 10:29:58;;;;;;;1.10;1.00;;;6.10;99.80;;;;;;5063225;28;20202;-65
2020/12/24 10:32:24;;;;;;;1.33;0.90;;;6.20;99.90;;;;;;5062206;28;20429;-63
2020/12/24 10:34:50;;;;;;;1.17;1.07;;;6.20;99.90;;;;;;5058933;28;20484;-60
2020/12/24 10:37:16;;;;;;;2.40;1.10;;;6.20;99.70;;;;;;5060618;28;20425;-61
2020/12/24 10:39:42;;;;;;;1.83;1.07;;;6.20;99.90;;;;;;5076704;22;20218;-59
2020/12/24 10:42:08;;;;;;;1.43;1.00;;;6.20;99.70;;;;;;5048846;28;21250;-62
2020/12/24 10:44:34;;;;;;;0.93;0.87;;;6.20;99.10;;;;;;5067037;28;20443;-62
2020/12/24 10:47:00;;;;;;;2.60;1.27;;;6.10;99.70;;;;;;5072311;28;20207;-61
2020/12/24 10:49:27;;;;;;;0.90;0.90;;;6.20;99.90;;;;;;5078023;28;20441;-61
2020/12/24 10:51:53;;;;;;;1.73;1.07;;;6.20;99.90;;;;;;5059312;28;20434;-61
2020/12/24 10:54:19;;;;;;;4.30;1.10;;;6.20;99.90;;;;;;5050769;28;20433;-63
2020/12/24 10:56:49;;;;;;;0.93;0.93;;;6.30;99.90;;;;;;5040528;28;20439;-60
2020/12/24 10:59:15;;;;;;;1.37;1.10;;;6.30;99.70;;;;;;5038781;28;20456;-61
2020/12/24 11:01:48;;;;;;;1.20;1.03;;;6.40;99.10;;;;;;5039447;28;20455;-60
2020/12/24 11:04:14;;;;;;;2.80;1.00;;;6.40;99.40;;;;;;5036397;28;20426;-58
2020/12/24 11:06:43;;;;;;;0.83;0.83;;;6.50;99.30;;;;;;5022810;28;20552;-59
2020/12/24 11:09:10;;;;;;;1.17;0.90;;;6.60;98.60;;;;;;5021496;28;20568;-59
2020/12/24 11:11:36;;;;;;;4.80;1.00;;;6.60;98.60;;;;;;5023481;28;20518;-60
2020/12/24 11:14:02;;;;;;;1.17;1.07;;;6.60;98.70;;;;;;5023930;28;20499;-60
2020/12/24 11:16:28;;;;;;;1.00;1.00;;;6.60;98.80;;;;;;5038154;28;20438;-59
2020/12/24 11:18:54;;;;;;;3.17;1.20;;;6.70;98.60;;;;;;5019745;28;20979;-60
2020/12/24 11:21:20;;;;;;;0.80;0.80;;;6.70;98.70;;;;;;5039657;28;20282;-59
2020/12/24 11:23:46;;;;;;;0.97;0.97;;;6.70;98.10;;;;;;5037113;28;20183;-60
2020/12/24 11:26:25;;;;;;;2.60;1.20;;;6.70;97.70;;;;;;5037337;28;20449;-60
2020/12/24 11:28:52;;;;;;;1.47;1.13;;;6.60;97.10;;;;;;5041222;28;20466;-60
2020/12/24 11:31:25;;;;;;;1.37;0.90;;;6.50;97.00;;;;;;5042920;28;20803;-59
2020/12/24 11:33:51;;;;;;;1.00;0.90;;;6.50;97.60;;;;;;5016411;28;20499;-59
2020/12/24 11:36:18;;;;;;;1.30;0.73;;;6.50;97.90;;;;;;5040532;28;20519;-59
2020/12/24 11:38:44;;;;;;;1.50;1.00;;;6.40;97.60;;;;;;5038711;28;20440;-59
2020/12/24 11:41:14;;;;;;;1.70;0.93;;;6.40;97.70;;;;;;5020735;28;20465;-59
2020/12/24 11:43:39;;;;;;;1.83;0.90;;;6.50;97.70;;;;;;5035299;28;20642;-60
2020/12/24 11:46:08;;;;;;;2.07;1.00;;;6.50;97.60;;;;;;5039527;28;20472;-60
2020/12/24 11:48:34;;;;;;;1.27;1.17;;;6.60;97.80;;;;;;5026348;28;20437;-60
2020/12/24 11:50:59;;;;;;;1.90;1.70;;;6.60;97.30;;;;;;5036732;28;21307;-58
2020/12/24 11:53:25;;;;;;;3.20;1.80;;;6.70;97.30;;;;;;5038195;28;20721;-59
2020/12/24 11:55:51;;;;;;;3.27;2.30;;;6.60;97.50;;;;;;5021041;28;20455;-58
2020/12/24 11:58:18;;;;;;;1.70;1.20;;;6.70;97.40;;;;;;5039602;28;20195;-59
2020/12/24 12:00:44;;;;;;;5.13;1.50;;;6.60;97.30;;;;;;5038312;28;20978;-60
2020/12/24 12:03:10;;;;;;;5.40;1.20;;;6.60;97.40;;;;;;5043367;28;20434;-59
2020/12/24 12:05:35;;;;;;;1.63;1.53;;;6.60;97.40;;;;;;5028175;28;20510;-59
2020/12/24 12:08:04;;;;;;;3.10;1.40;;;6.60;97.60;;;;;;5040754;28;21026;-59
2020/12/24 12:10:30;;;;;;;1.73;1.63;;;6.50;97.70;;;;;;5042051;28;20202;-61
2020/12/24 12:12:55;;;;;;;2.87;1.50;;;6.50;98.10;;;;;;5046030;28;20433;-60
2020/12/24 12:15:21;;;;;;;1.27;1.10;;;6.60;98.20;;;;;;5026120;28;20843;-59
2020/12/24 12:17:47;;;;;;;1.50;1.40;;;6.50;98.20;;;;;;5047338;28;20433;-59
2020/12/24 12:20:13;;;;;;;1.20;1.10;;;6.50;98.20;;;;;;5042007;28;20210;-60
2020/12/24 12:22:38;;;;;;;1.40;1.20;;;6.50;98.40;;;;;;5046658;28;20211;-60
2020/12/24 12:25:04;;;;;;;4.67;0.97;;;6.50;98.50;;;;;;5045825;28;20491;-58
2020/12/24 12:27:30;;;;;;;1.90;1.00;;;6.50;98.50;;;;;;5047985;28;20171;-59
2020/12/24 12:29:55;;;;;;;1.30;1.20;;;6.50;98.20;;;;;;5039504;28;20251;-58
2020/12/24 12:32:21;;;;;;;2.90;1.43;;;6.50;98.30;;;;;;5043322;28;20852;-58
2020/12/24 12:34:48;;;;;;;1.67;1.30;;;6.50;98.30;;;;;;5054488;28;20179;-57
2020/12/24 12:37:17;;;;;;;3.53;1.30;;;6.50;98.50;;;;;;5049199;28;20229;-58
2020/12/24 12:39:42;;;;;;;2.20;1.43;;;6.50;98.40;;;;;;5046566;28;20467;-58
2020/12/24 12:42:08;;;;;;;1.20;1.10;;;6.50;98.60;;;;;;5046386;28;20457;-58
2020/12/24 12:44:34;;;;;;;3.87;1.30;;;6.50;98.70;;;;;;5047781;28;20698;-58
2020/12/24 12:46:59;;;;;;;3.13;1.30;;;6.50;98.70;;;;;;5016805;28;20702;-59
2020/12/24 12:49:25;;;;;;;1.97;1.40;;;6.40;98.60;;;;;;5045489;28;20229;-59
2020/12/24 12:51:51;;;;;;;1.63;1.43;;;6.40;99.00;;;;;;5049552;28;20237;-58
2020/12/24 12:54:17;;;;;;;2.63;1.93;;;6.40;99.20;;;;;;5031660;28;20187;-59
2020/12/24 12:56:43;;;;;;;1.27;1.17;;;6.40;99.40;;;;;;5026658;28;20203;-59
2020/12/24 12:59:10;;;;;;;1.40;1.17;;;6.40;99.50;;;;;;5041772;28;20286;-60
2020/12/24 13:01:35;;;;;;;1.90;1.77;;;6.40;99.60;;;;;;5041797;28;20500;-59